Observations for LONDON GATWICK ARPT, United Kingdom (EGKK)

EGKK 260450Z 00000KT CAVOK 14/14 Q1018  
EGKK 260420Z 23001KT 7000 NSC 14/14 Q1018   
EGKK 260350Z 27001KT CAVOK 14/14 Q1018  
EGKK 260320Z VRB01KT 9000 NSC 14/13 Q1018   
EGKK 260250Z 20001KT CAVOK 15/14 Q1018  
EGKK 260220Z 23001KT CAVOK 15/14 Q1019  
EGKK 260150Z VRB01KT CAVOK 15/14 Q1019  
EGKK 260120Z 00000KT CAVOK 16/15 Q1019  
EGKK 260050Z 16001KT CAVOK 17/15 Q1019  
EGKK 260020Z VRB02KT CAVOK 17/15 Q1019  
EGKK 252350Z 08002KT CAVOK 17/15 Q1019  
EGKK 252320Z 21001KT CAVOK 18/15 Q1019  
EGKK 252250Z 21001KT CAVOK 18/15 Q1019  
EGKK 252220Z VRB02KT CAVOK 18/15 Q1019  
EGKK 252150Z VRB02KT CAVOK 19/15 Q1019  
EGKK 252120Z 10002KT CAVOK 20/16 Q1019  
EGKK 252050Z 24001KT CAVOK 21/15 Q1019  
EGKK 252020Z 22002KT CAVOK 22/15 Q1019  
EGKK 251950Z 23004KT CAVOK 23/16 Q1019  
EGKK 251920Z VRB02KT CAVOK 24/14 Q1018  
EGKK 251850Z 13002KT CAVOK 26/14 Q1018  
EGKK 251820Z 15004KT CAVOK 27/14 Q1018  
EGKK 251750Z 14005KT 120V180 CAVOK 28/14 Q1018  
EGKK 251720Z 16004KT CAVOK 29/14 Q1018  
EGKK 251650Z 15005KT 110V180 CAVOK 29/14 Q1018  
EGKK 251620Z 15005KT 110V180 CAVOK 30/14 Q1018  
EGKK 251550Z 14005KT 090V170 CAVOK 30/13 Q1018  
EGKK 251520Z 15005KT CAVOK 30/13 Q1018  
EGKK 251450Z 14006KT 100V180 CAVOK 31/11 Q1018  
EGKK 251420Z 13007KT 110V170 CAVOK 30/12 Q1018  
EGKK 251350Z 15006KT 110V240 CAVOK 31/12 Q1018  
EGKK 251320Z 15005KT 110V210 CAVOK 31/12 Q1018  
EGKK 251250Z 16006KT CAVOK 30/12 Q1018  
EGKK 251220Z 17006KT 120V210 CAVOK 30/12 Q1018  
EGKK 251150Z 18005KT 100V220 CAVOK 30/12 Q1018  
EGKK 251120Z VRB04KT CAVOK 30/14 Q1018  
EGKK 251050Z VRB04KT CAVOK 29/18 Q1018  
EGKK 251020Z 06005KT 010V110 CAVOK 27/19 Q1018  
EGKK 250950Z 07004KT 010V100 CAVOK 24/18 Q1018  
EGKK 250920Z 06004KT 010V100 CAVOK 23/18 Q1018  
EGKK 250850Z 08004KT 010V110 CAVOK 22/17 Q1018  
EGKK 250820Z 06004KT 030V100 CAVOK 21/16 Q1018  
EGKK 250750Z 07005KT CAVOK 20/16 Q1018  
EGKK 250720Z VRB03KT CAVOK 18/15 Q1018  
EGKK 250650Z 08004KT CAVOK 16/15 Q1017  
EGKK 250620Z 08002KT CAVOK 15/13 Q1017  
EGKK 250550Z 07005KT CAVOK 14/13 Q1017  
EGKK 250520Z 07004KT CAVOK 14/13 Q1017  
EGKK 250450Z 07003KT CAVOK 14/13 Q1017  
EGKK 250420Z VRB01KT CAVOK 14/13 Q1017